createdAt,value
2023-01-22T00:01:12.826Z,12.87
2023-01-22T00:03:40.652Z,13.10
2023-01-22T00:06:09.293Z,11.77
2023-01-22T00:08:36.454Z,11.63
2023-01-22T00:11:03.981Z,12.27
2023-01-22T00:13:31.314Z,12.80
2023-01-22T00:15:59.962Z,11.37
2023-01-22T00:18:27.303Z,10.97
2023-01-22T00:20:55.622Z,10.33
2023-01-22T00:23:23.732Z,9.80
2023-01-22T00:26:03.835Z,11.77
2023-01-22T00:28:32.014Z,11.60
2023-01-22T00:31:04.043Z,11.70
2023-01-22T00:33:32.280Z,12.37
2023-01-22T00:36:12.495Z,13.20
2023-01-22T00:38:41.179Z,10.97
2023-01-22T00:41:09.451Z,11.37
2023-01-22T00:43:40.795Z,12.47
2023-01-22T00:46:13.364Z,12.17
2023-01-22T00:48:40.804Z,10.80
2023-01-22T00:51:08.853Z,12.20
2023-01-22T00:53:37.069Z,12.23
2023-01-22T00:56:04.749Z,11.00
2023-01-22T00:58:31.731Z,13.73
2023-01-22T01:00:58.818Z,11.90
2023-01-22T01:03:30.779Z,10.93
2023-01-22T01:06:06.002Z,12.67
2023-01-22T01:08:36.846Z,10.90
2023-01-22T01:11:13.739Z,12.60
2023-01-22T01:13:43.223Z,10.40
2023-01-22T01:16:23.803Z,13.73
2023-01-22T01:18:50.948Z,10.90
2023-01-22T01:21:19.220Z,12.17
2023-01-22T01:23:46.901Z,11.97
2023-01-22T01:26:16.077Z,10.97
2023-01-22T01:28:45.474Z,11.73
2023-01-22T01:31:15.876Z,10.57
2023-01-22T01:33:43.521Z,11.63
2023-01-22T01:36:15.535Z,12.33
2023-01-22T01:38:43.823Z,12.40
2023-01-22T01:41:15.843Z,11.97
2023-01-22T01:43:43.137Z,12.83
2023-01-22T01:46:25.276Z,11.40
2023-01-22T01:48:54.604Z,12.07
2023-01-22T01:51:35.066Z,11.57
2023-01-22T01:54:04.376Z,11.30
2023-01-22T01:56:38.642Z,11.80
2023-01-22T01:59:13.212Z,12.77
2023-01-22T02:01:41.167Z,12.73
2023-01-22T02:04:08.468Z,11.97
2023-01-22T02:06:37.333Z,12.70
2023-01-22T02:09:04.396Z,11.63
2023-01-22T02:11:34.088Z,11.50
2023-01-22T02:14:06.154Z,11.40
2023-01-22T02:16:33.620Z,13.20
2023-01-22T02:19:00.647Z,12.37
2023-01-22T02:21:36.735Z,13.20
2023-01-22T02:24:08.291Z,12.67
2023-01-22T02:26:36.184Z,12.50
2023-01-22T02:29:04.862Z,11.33
2023-01-22T02:31:32.079Z,13.73
2023-01-22T02:34:01.931Z,13.77
2023-01-22T02:36:32.195Z,12.30
2023-01-22T02:38:59.369Z,11.97
2023-01-22T02:41:27.493Z,12.80
2023-01-22T02:43:54.706Z,12.53
2023-01-22T02:46:25.946Z,13.00
2023-01-22T02:48:53.413Z,13.40
2023-01-22T02:51:20.688Z,13.23
2023-01-22T02:53:50.018Z,12.37
2023-01-22T02:56:17.662Z,11.90
2023-01-22T02:58:44.803Z,14.57
2023-01-22T03:01:24.467Z,13.57
2023-01-22T03:04:12.715Z,13.47
2023-01-22T03:06:45.113Z,13.87
2023-01-22T03:09:16.657Z,12.97
2023-01-22T03:11:46.491Z,13.47
2023-01-22T03:14:37.895Z,13.43
2023-01-22T03:17:23.755Z,13.47
2023-01-22T03:20:10.070Z,13.50
2023-01-22T03:22:37.155Z,14.63
2023-01-22T03:25:04.672Z,12.80
2023-01-22T03:27:32.564Z,12.00
2023-01-22T03:29:59.735Z,13.77
2023-01-22T03:32:27.927Z,14.03
2023-01-22T03:34:55.324Z,14.33
2023-01-22T03:37:23.590Z,13.20
2023-01-22T03:39:53.539Z,14.30
2023-01-22T03:42:32.390Z,15.50
2023-01-22T03:44:59.365Z,14.40
2023-01-22T03:47:27.006Z,12.97
2023-01-22T03:49:54.167Z,15.50
2023-01-22T03:52:21.360Z,14.63
2023-01-22T03:54:48.298Z,14.77
2023-01-22T03:57:15.313Z,13.63
2023-01-22T03:59:42.999Z,13.80
2023-01-22T04:02:10.134Z,13.90
2023-01-22T04:04:47.875Z,14.30
2023-01-22T04:07:14.944Z,14.60
2023-01-22T04:09:42.267Z,13.63
2023-01-22T04:12:09.331Z,14.80
2023-01-22T04:14:36.350Z,15.40
2023-01-22T04:17:04.326Z,12.30
2023-01-22T04:19:31.325Z,13.77
2023-01-22T04:22:11.796Z,12.53
2023-01-22T04:24:39.772Z,12.47
2023-01-22T04:27:06.859Z,14.13
2023-01-22T04:29:33.968Z,13.77
2023-01-22T04:32:00.986Z,15.07
2023-01-22T04:34:47.771Z,13.23
2023-01-22T04:37:33.191Z,13.13
2023-01-22T04:40:00.194Z,14.80
2023-01-22T04:42:27.339Z,15.10
2023-01-22T04:44:54.414Z,14.67
2023-01-22T04:47:21.712Z,14.33
2023-01-22T04:49:48.745Z,15.03
2023-01-22T04:52:17.400Z,14.63
2023-01-22T04:54:44.372Z,14.13
2023-01-22T04:57:12.173Z,15.27
2023-01-22T04:59:39.233Z,13.70
2023-01-22T05:02:06.666Z,13.70
2023-01-22T05:04:33.695Z,12.73
2023-01-22T05:07:00.671Z,14.10
2023-01-22T05:09:27.724Z,14.17
2023-01-22T05:12:03.435Z,13.30
2023-01-22T05:14:34.875Z,16.37
2023-01-22T05:17:02.428Z,14.97
2023-01-22T05:19:29.474Z,16.10
2023-01-22T05:21:56.566Z,14.33
2023-01-22T05:24:23.530Z,16.67
2023-01-22T05:26:50.527Z,15.77
2023-01-22T05:29:27.641Z,14.57
2023-01-22T05:32:13.825Z,15.33
2023-01-22T05:34:45.431Z,13.60
2023-01-22T05:37:13.058Z,15.10
2023-01-22T05:39:40.306Z,15.17
2023-01-22T05:42:16.559Z,14.23
2023-01-22T05:44:46.590Z,12.37
2023-01-22T05:47:14.549Z,13.90
2023-01-22T05:50:03.769Z,15.07
2023-01-22T05:52:30.819Z,14.63
2023-01-22T05:54:59.867Z,13.80
2023-01-22T05:57:29.813Z,14.63
2023-01-22T05:59:56.947Z,14.40
2023-01-22T06:02:23.937Z,13.33
2023-01-22T06:04:53.461Z,14.20
2023-01-22T06:07:25.228Z,12.83
2023-01-22T06:09:52.886Z,13.60
2023-01-22T06:12:19.914Z,15.10
2023-01-22T06:14:47.366Z,14.83
2023-01-22T06:17:14.707Z,14.60
2023-01-22T06:19:47.118Z,16.77
2023-01-22T06:22:16.020Z,12.83
2023-01-22T06:24:50.586Z,13.70
2023-01-22T06:27:19.226Z,14.83
2023-01-22T06:29:54.111Z,15.33
2023-01-22T06:32:21.502Z,13.13
2023-01-22T06:34:48.646Z,14.97
2023-01-22T06:37:17.357Z,15.80
2023-01-22T06:39:44.476Z,17.07
2023-01-22T06:42:27.876Z,13.70
2023-01-22T06:44:56.495Z,14.10
2023-01-22T06:47:26.320Z,14.83
2023-01-22T06:49:53.418Z,16.87
2023-01-22T06:52:20.679Z,17.03
2023-01-22T06:54:47.716Z,18.50
2023-01-22T06:57:14.827Z,17.20
2023-01-22T06:59:42.044Z,17.67
2023-01-22T07:02:16.894Z,17.90
2023-01-22T07:04:44.204Z,18.40
2023-01-22T07:07:11.991Z,17.67
2023-01-22T07:09:38.967Z,18.90
2023-01-22T07:12:06.184Z,19.10
2023-01-22T07:14:37.509Z,19.63
2023-01-22T07:17:05.064Z,17.03
2023-01-22T07:19:32.419Z,20.67
2023-01-22T07:21:59.504Z,20.10
2023-01-22T07:24:26.730Z,18.33
2023-01-22T07:26:53.785Z,22.30
2023-01-22T07:29:20.742Z,20.23
2023-01-22T07:31:49.790Z,20.30
2023-01-22T07:34:16.994Z,18.73
2023-01-22T07:36:45.790Z,19.17
2023-01-22T07:39:12.740Z,19.80
2023-01-22T07:41:39.761Z,21.67
2023-01-22T07:44:12.052Z,23.00
2023-01-22T07:46:39.224Z,21.43
2023-01-22T07:49:07.649Z,22.67
2023-01-22T07:51:34.822Z,23.40
2023-01-22T07:54:01.916Z,22.10
2023-01-22T07:56:29.094Z,22.00
2023-01-22T07:58:56.064Z,21.50
2023-01-22T08:01:23.303Z,23.33
2023-01-22T08:03:50.303Z,19.03
2023-01-22T08:06:20.782Z,20.33
2023-01-22T08:08:47.859Z,21.50
2023-01-22T08:11:15.429Z,22.93
2023-01-22T08:13:42.519Z,20.17
2023-01-22T08:16:09.683Z,19.07
2023-01-22T08:18:37.305Z,24.40
2023-01-22T08:21:04.610Z,19.53
2023-01-22T08:23:31.809Z,21.80
2023-01-22T08:26:00.553Z,22.60
2023-01-22T08:28:27.864Z,19.37
2023-01-22T08:31:00.187Z,20.40
2023-01-22T08:33:28.147Z,23.77
2023-01-22T08:35:55.528Z,21.13
2023-01-22T08:38:22.516Z,18.87
2023-01-22T08:40:50.945Z,20.87
2023-01-22T08:43:18.159Z,22.07
2023-01-22T08:45:47.788Z,20.80
2023-01-22T08:48:14.870Z,21.53
2023-01-22T08:50:41.778Z,22.60
2023-01-22T08:53:09.181Z,19.67
2023-01-22T08:55:36.567Z,21.97
2023-01-22T08:58:03.825Z,22.63
2023-01-22T09:00:31.174Z,17.60
2023-01-22T09:02:59.865Z,21.20
2023-01-22T09:05:28.297Z,21.10
2023-01-22T09:07:55.623Z,20.37
2023-01-22T09:10:23.213Z,22.77
2023-01-22T09:12:50.757Z,21.07
2023-01-22T09:15:18.140Z,21.33
2023-01-22T09:17:45.443Z,23.80
2023-01-22T09:20:12.838Z,22.10
2023-01-22T09:22:40.122Z,18.73
2023-01-22T09:25:08.385Z,22.53
2023-01-22T09:27:35.708Z,21.83
2023-01-22T09:30:03.295Z,19.70
2023-01-22T09:32:30.701Z,21.50
2023-01-22T09:34:58.064Z,21.27
2023-01-22T09:37:25.372Z,20.33
2023-01-22T09:39:52.903Z,20.93
2023-01-22T09:42:40.263Z,21.83
2023-01-22T09:45:11.603Z,20.60
2023-01-22T09:47:47.531Z,20.00
2023-01-22T09:50:21.978Z,18.13
2023-01-22T09:52:53.988Z,19.03
2023-01-22T09:55:24.746Z,20.30
2023-01-22T09:57:54.122Z,19.33
2023-01-22T10:00:31.502Z,21.07
2023-01-22T10:03:26.888Z,19.80
2023-01-22T10:06:00.830Z,22.23
2023-01-22T10:08:39.035Z,19.97
2023-01-22T10:11:09.482Z,21.30
2023-01-22T10:13:38.417Z,21.20
2023-01-22T10:16:06.739Z,20.87
2023-01-22T10:18:48.598Z,22.17
2023-01-22T10:21:18.846Z,24.57
2023-01-22T10:23:46.566Z,25.10
2023-01-22T10:26:25.374Z,23.10
2023-01-22T10:28:55.873Z,22.87
2023-01-22T10:31:26.510Z,23.00
2023-01-22T10:34:10.133Z,22.67
2023-01-22T10:36:37.592Z,23.50
2023-01-22T10:39:13.650Z,22.37
2023-01-22T10:41:45.510Z,22.27
2023-01-22T10:44:22.810Z,24.63
2023-01-22T10:46:50.978Z,25.47
2023-01-22T10:49:22.258Z,21.80
2023-01-22T10:52:01.127Z,21.50
2023-01-22T10:54:39.692Z,21.17
2023-01-22T10:57:20.993Z,24.23
2023-01-22T11:00:06.647Z,20.63
2023-01-22T11:02:35.336Z,20.40
2023-01-22T11:05:20.855Z,22.10
2023-01-22T11:08:11.665Z,22.07
2023-01-22T11:10:53.103Z,21.00
2023-01-22T11:13:31.815Z,21.40
2023-01-22T11:16:21.052Z,20.50
2023-01-22T11:19:16.772Z,19.73
2023-01-22T11:21:52.278Z,22.27
2023-01-22T11:24:48.358Z,19.60
2023-01-22T11:27:50.609Z,17.53
2023-01-22T11:30:58.094Z,20.43
2023-01-22T11:34:25.624Z,21.27
2023-01-22T11:37:09.229Z,21.97
2023-01-22T11:40:26.162Z,19.87
2023-01-22T11:43:20.756Z,19.00
2023-01-22T11:46:09.741Z,18.57
2023-01-22T11:48:51.288Z,18.27
2023-01-22T11:51:40.129Z,19.80
2023-01-22T11:54:37.403Z,18.57
2023-01-22T11:57:24.902Z,18.10
2023-01-22T12:00:04.877Z,17.57
2023-01-22T12:02:58.977Z,18.23
2023-01-22T12:05:48.094Z,19.03
2023-01-22T12:08:33.125Z,20.17
2023-01-22T12:11:25.329Z,22.07
2023-01-22T12:14:13.696Z,18.97
2023-01-22T12:16:50.312Z,17.17
2023-01-22T12:19:44.755Z,19.30
2023-01-22T12:22:48.289Z,17.17
2023-01-22T12:25:22.016Z,19.50
2023-01-22T12:28:00.698Z,19.23
2023-01-22T12:31:08.291Z,18.53
2023-01-22T12:33:41.825Z,19.33
2023-01-22T12:36:16.360Z,18.10
2023-01-22T12:39:06.981Z,17.57
2023-01-22T12:42:13.306Z,19.60
2023-01-22T12:45:27.708Z,16.97
2023-01-22T12:47:57.529Z,17.37
2023-01-22T12:50:27.314Z,16.97
2023-01-22T12:53:03.943Z,14.50
2023-01-22T12:55:37.961Z,15.80
2023-01-22T12:58:21.110Z,15.53
2023-01-22T13:01:23.557Z,18.83
2023-01-22T13:04:05.138Z,17.20
2023-01-22T13:06:40.590Z,15.30
2023-01-22T13:09:25.688Z,14.87
2023-01-22T13:11:52.669Z,16.27
2023-01-22T13:14:30.935Z,16.80
2023-01-22T13:17:03.635Z,16.20
2023-01-22T13:19:40.078Z,13.93
2023-01-22T13:22:13.377Z,16.30
2023-01-22T13:24:58.575Z,17.60
2023-01-22T13:27:36.160Z,19.40
2023-01-22T13:30:15.945Z,18.67
2023-01-22T13:32:43.211Z,16.57
2023-01-22T13:35:14.992Z,17.03
2023-01-22T13:37:45.157Z,15.27
2023-01-22T13:40:30.385Z,21.20
2023-01-22T13:43:01.823Z,17.80
2023-01-22T13:45:31.723Z,19.40
2023-01-22T13:48:04.062Z,18.60
2023-01-22T13:50:32.660Z,18.93
2023-01-22T13:53:03.463Z,18.03
2023-01-22T13:55:30.883Z,17.30
2023-01-22T13:58:05.232Z,15.23
2023-01-22T14:00:35.032Z,16.10
2023-01-22T14:03:02.933Z,16.30
2023-01-22T14:05:35.667Z,18.10
2023-01-22T14:08:08.819Z,16.20
2023-01-22T14:10:36.448Z,19.90
2023-01-22T14:13:12.741Z,18.03
2023-01-22T14:15:41.190Z,17.27
2023-01-22T14:18:17.085Z,17.70
2023-01-22T14:20:47.150Z,17.73
2023-01-22T14:23:15.679Z,18.43
2023-01-22T14:25:49.487Z,17.10
2023-01-22T14:28:16.877Z,18.83
2023-01-22T14:30:44.598Z,16.30
2023-01-22T14:33:32.700Z,17.17
2023-01-22T14:36:00.206Z,16.93
2023-01-22T14:38:28.092Z,15.57
2023-01-22T14:40:55.777Z,16.80
2023-01-22T14:43:23.316Z,15.90
2023-01-22T14:45:51.603Z,17.23
2023-01-22T14:48:20.614Z,17.00
2023-01-22T14:50:49.013Z,16.50
2023-01-22T14:53:17.846Z,17.03
2023-01-22T14:55:47.886Z,18.17
2023-01-22T14:58:16.300Z,16.47
2023-01-22T15:00:44.382Z,16.57
2023-01-22T15:03:11.405Z,15.63
2023-01-22T15:05:38.387Z,15.87
2023-01-22T15:08:05.479Z,15.97
2023-01-22T15:10:33.037Z,19.17
2023-01-22T15:12:59.937Z,21.33
2023-01-22T15:15:28.377Z,18.47
2023-01-22T15:17:57.252Z,19.47
2023-01-22T15:20:25.735Z,16.93
2023-01-22T15:22:53.105Z,20.03
2023-01-22T15:25:20.274Z,19.00
2023-01-22T15:27:47.373Z,16.40
2023-01-22T15:30:15.411Z,18.17
2023-01-22T15:32:42.487Z,18.40
2023-01-22T15:35:10.263Z,17.70
2023-01-22T15:37:37.473Z,17.97
2023-01-22T15:40:05.459Z,17.63
2023-01-22T15:42:35.584Z,19.73
2023-01-22T15:45:04.325Z,22.67
2023-01-22T15:47:31.319Z,21.80
2023-01-22T15:49:58.353Z,17.93
2023-01-22T15:52:25.269Z,18.70
2023-01-22T15:54:55.802Z,18.53
2023-01-22T15:57:22.827Z,21.10
2023-01-22T15:59:51.287Z,20.93
2023-01-22T16:02:18.574Z,19.43
2023-01-22T16:04:45.678Z,20.40
2023-01-22T16:07:12.649Z,22.77
2023-01-22T16:09:39.834Z,20.93
2023-01-22T16:12:07.276Z,18.50
2023-01-22T16:14:34.201Z,20.73
2023-01-22T16:17:01.648Z,18.83
2023-01-22T16:19:28.592Z,21.07
2023-01-22T16:21:55.565Z,20.90
2023-01-22T16:24:22.539Z,20.73
2023-01-22T16:26:49.627Z,18.83
2023-01-22T16:29:16.682Z,21.90
2023-01-22T16:31:43.699Z,22.00
2023-01-22T16:34:17.064Z,22.83
2023-01-22T16:36:45.124Z,22.73
2023-01-22T16:39:22.214Z,23.40
2023-01-22T16:41:51.861Z,23.20
2023-01-22T16:44:26.194Z,21.10
2023-01-22T16:46:57.108Z,20.40
2023-01-22T16:49:28.998Z,18.60
2023-01-22T16:52:16.699Z,20.37
2023-01-22T16:54:49.344Z,21.50
2023-01-22T16:57:16.492Z,22.17
2023-01-22T16:59:43.712Z,21.23
2023-01-22T17:02:16.035Z,16.30
2023-01-22T17:04:43.023Z,16.23
2023-01-22T17:07:20.516Z,14.90
2023-01-22T17:09:54.862Z,15.50
2023-01-22T17:12:21.778Z,14.80
2023-01-22T17:14:52.632Z,13.53
2023-01-22T17:17:19.606Z,15.37
2023-01-22T17:19:46.614Z,14.83
2023-01-22T17:22:13.556Z,14.73
2023-01-22T17:24:41.682Z,15.60
2023-01-22T17:27:08.925Z,13.60
2023-01-22T17:29:36.284Z,17.37
2023-01-22T17:32:04.255Z,16.77
2023-01-22T17:34:31.393Z,13.23
2023-01-22T17:36:58.430Z,12.50
2023-01-22T17:39:25.475Z,12.30
2023-01-22T17:41:52.487Z,13.27
2023-01-22T17:44:19.470Z,12.13
2023-01-22T17:46:49.080Z,12.90
2023-01-22T17:49:16.678Z,11.10
2023-01-22T17:51:43.832Z,11.67
2023-01-22T17:54:10.883Z,11.80
2023-01-22T17:56:43.036Z,10.70
2023-01-22T17:59:12.196Z,10.67
2023-01-22T18:01:40.335Z,10.20
2023-01-22T18:04:10.695Z,10.17
2023-01-22T18:06:39.231Z,8.80
2023-01-22T18:09:07.928Z,8.93
2023-01-22T18:11:36.392Z,10.97
2023-01-22T18:14:10.872Z,10.73
2023-01-22T18:16:39.252Z,10.87
2023-01-22T18:19:07.359Z,9.93
2023-01-22T18:21:39.122Z,10.60
2023-01-22T18:24:08.562Z,9.27
2023-01-22T18:26:36.632Z,9.50
2023-01-22T18:29:04.861Z,9.33
2023-01-22T18:31:32.392Z,7.70
2023-01-22T18:34:02.291Z,8.33
2023-01-22T18:36:39.645Z,8.80
2023-01-22T18:39:11.716Z,9.93
2023-01-22T18:41:40.655Z,9.33
2023-01-22T18:44:09.343Z,9.60
2023-01-22T18:46:36.944Z,11.27
2023-01-22T18:49:10.094Z,11.30
2023-01-22T18:51:37.186Z,10.13
2023-01-22T18:54:05.299Z,11.13
2023-01-22T18:56:32.440Z,13.70
2023-01-22T18:59:00.255Z,14.07
2023-01-22T19:01:34.040Z,11.10
2023-01-22T19:04:05.543Z,15.50
2023-01-22T19:06:37.361Z,10.40
2023-01-22T19:09:12.435Z,13.07
2023-01-22T19:11:43.293Z,12.77
2023-01-22T19:14:14.620Z,13.30
2023-01-22T19:16:44.768Z,11.70
2023-01-22T19:19:13.613Z,12.80
2023-01-22T19:21:46.805Z,10.67
2023-01-22T19:24:17.075Z,10.73
2023-01-22T19:26:46.413Z,14.30
2023-01-22T19:29:17.325Z,9.67
2023-01-22T19:31:51.892Z,14.57
2023-01-22T19:34:25.382Z,11.83
2023-01-22T19:36:55.586Z,15.80
2023-01-22T19:39:25.423Z,10.47
2023-01-22T19:41:52.692Z,9.97
2023-01-22T19:44:20.236Z,10.07
2023-01-22T19:46:47.365Z,11.40
2023-01-22T19:49:14.575Z,9.93
2023-01-22T19:51:42.019Z,9.40
2023-01-22T19:54:10.166Z,9.70
2023-01-22T19:56:39.756Z,10.23
2023-01-22T19:59:19.832Z,11.30
2023-01-22T20:01:48.712Z,10.70
2023-01-22T20:04:21.493Z,12.30
2023-01-22T20:06:51.828Z,8.87
2023-01-22T20:09:21.831Z,8.80
2023-01-22T20:11:54.170Z,8.80
2023-01-22T20:14:25.780Z,8.77
2023-01-22T20:16:53.025Z,8.80
2023-01-22T20:19:20.011Z,8.10
2023-01-22T20:21:47.041Z,10.17
2023-01-22T20:24:14.168Z,9.90
2023-01-22T20:26:41.288Z,9.20
2023-01-22T20:29:08.706Z,9.90
2023-01-22T20:31:36.152Z,10.13
2023-01-22T20:34:04.597Z,8.10
2023-01-22T20:36:31.870Z,9.00
2023-01-22T20:39:00.793Z,9.63
2023-01-22T20:41:28.512Z,9.83
2023-01-22T20:43:55.699Z,9.40
2023-01-22T20:46:26.000Z,10.57
2023-01-22T20:48:53.946Z,9.80
2023-01-22T20:51:24.835Z,11.47
2023-01-22T20:53:53.534Z,11.77
2023-01-22T20:56:28.466Z,12.30
2023-01-22T20:58:57.457Z,10.37
2023-01-22T21:01:25.816Z,10.30
2023-01-22T21:03:54.743Z,13.00
2023-01-22T21:06:22.251Z,15.07
2023-01-22T21:08:52.361Z,13.80
2023-01-22T21:11:20.856Z,13.73
2023-01-22T21:13:49.819Z,13.80
2023-01-22T21:16:23.283Z,12.40
2023-01-22T21:18:50.314Z,10.93
2023-01-22T21:21:19.377Z,13.83
2023-01-22T21:23:52.256Z,12.63
2023-01-22T21:26:23.685Z,12.70
2023-01-22T21:28:55.167Z,11.73
2023-01-22T21:31:23.599Z,9.73
2023-01-22T21:33:52.655Z,10.40
2023-01-22T21:36:20.132Z,11.03
2023-01-22T21:38:47.882Z,10.47
2023-01-22T21:41:18.361Z,10.40
2023-01-22T21:44:05.542Z,10.30
2023-01-22T21:46:42.368Z,9.50
2023-01-22T21:49:20.036Z,10.30
2023-01-22T21:52:01.317Z,10.30
2023-01-22T21:54:38.046Z,11.07
2023-01-22T21:57:09.200Z,9.50
2023-01-22T21:59:36.847Z,10.80
2023-01-22T22:02:04.730Z,12.60
2023-01-22T22:04:33.171Z,11.67
2023-01-22T22:07:00.124Z,11.30
2023-01-22T22:09:28.974Z,12.20
2023-01-22T22:11:58.273Z,14.90
2023-01-22T22:14:25.753Z,13.33
2023-01-22T22:16:54.074Z,15.60
2023-01-22T22:19:23.053Z,16.73
2023-01-22T22:21:51.035Z,18.10
2023-01-22T22:24:19.585Z,19.20
2023-01-22T22:26:46.804Z,11.87
2023-01-22T22:29:13.790Z,10.13
2023-01-22T22:31:41.434Z,10.80
2023-01-22T22:34:08.496Z,11.13
2023-01-22T22:36:35.673Z,13.27
2023-01-22T22:39:03.728Z,13.13
2023-01-22T22:41:33.870Z,12.70
2023-01-22T22:44:00.864Z,12.00
2023-01-22T22:46:31.809Z,13.00
2023-01-22T22:49:00.983Z,12.10
2023-01-22T22:51:37.779Z,13.67
2023-01-22T22:54:16.760Z,11.20
2023-01-22T22:56:45.870Z,11.53
2023-01-22T22:59:14.104Z,12.47
2023-01-22T23:01:41.478Z,12.30
2023-01-22T23:04:08.693Z,11.40
2023-01-22T23:06:36.899Z,11.60
2023-01-22T23:09:14.888Z,10.83
2023-01-22T23:11:42.313Z,10.70
2023-01-22T23:14:10.242Z,10.00
2023-01-22T23:16:41.365Z,11.80
2023-01-22T23:19:15.006Z,11.00
2023-01-22T23:21:42.533Z,11.43
2023-01-22T23:24:11.495Z,12.30
2023-01-22T23:26:40.064Z,12.60
2023-01-22T23:29:09.313Z,10.43
2023-01-22T23:31:38.413Z,11.73
2023-01-22T23:34:07.776Z,11.03
2023-01-22T23:36:35.829Z,13.07
2023-01-22T23:39:04.064Z,12.80
2023-01-22T23:41:31.484Z,11.00
2023-01-22T23:43:58.950Z,12.27
2023-01-22T23:46:27.759Z,14.60
2023-01-22T23:48:56.019Z,11.77
2023-01-22T23:51:23.937Z,11.10
2023-01-22T23:53:52.315Z,10.37
2023-01-22T23:56:21.961Z,12.07
2023-01-22T23:58:49.615Z,12.70
